Acton, Texas
Current Conditions -  °F | °C
As of 4:15 AM on Thursday 23 Oct 2014 (Local Time) from KGDJ Reporting Station
Overcast Overcast  
Wind Chill: 68°   Ceiling: 11000
Heat Index: 68°   Visibility: 10mi
Dew Point: 57°   Wind: 6mph
Humidity: 68%   Direction: 130°SE
Pressure: 30.12"   Gusts: NA
Location:  32.4693°N, 97.7085°W
Report Text: KGDJ 230915Z AUTO 13005KT 10SM SCT080 OVC110 20/14 A3012 RMK AO2 T02010140
Loading
Personal Weather Stations






























Interactive Weather Map
Tropical Storm Tracking
New forecast layout! Learn more

10-Day Weather Forecast

Advertisements
Track Severe Weather on mobile